Time;durP1;ratioP1;P1;durP2;ratioP2;P2;SDS_P1;SDS_P2;PMS_P1;PMS_P2;Temp;Humidity;BMP_temperature;BMP_pressure;BME280_temperature;BME280_humidity;BME280_pressure;Samples;Min_cycle;Max_cycle;Signal;HPM_P1;HPM_P2
2023/01/31 00:00:40;;;;;;;9.85;7.88;;;;;;;8.27;60.72;99758.16;5020545;28;20025;-48
2023/01/31 00:03:05;;;;;;;12.20;9.18;;;;;;;8.22;60.88;99761.25;5020375;28;20021;-48
2023/01/31 00:05:31;;;;;;;15.68;9.48;;;;;;;8.25;60.88;99755.72;5038044;28;20045;-48
2023/01/31 00:07:57;;;;;;;13.55;9.02;;;;;;;8.39;61.13;99755.13;5020413;28;20487;-49
2023/01/31 00:10:22;;;;;;;12.05;8.77;;;;;;;8.43;60.93;99757.44;5020253;28;20463;-48
2023/01/31 00:12:48;;;;;;;14.52;9.50;;;;;;;8.49;60.94;99751.56;5038392;28;20018;-49
2023/01/31 00:15:15;;;;;;;12.77;9.30;;;;;;;8.43;61.27;99752.19;5020339;28;20076;-48
2023/01/31 00:17:41;;;;;;;11.25;7.95;;;;;;;8.48;60.95;99752.53;5020286;28;20376;-48
2023/01/31 00:20:07;;;;;;;14.18;9.27;;;;;;;8.51;60.95;99754.81;5020299;28;20037;-48
2023/01/31 00:22:33;;;;;;;14.18;9.02;;;;;;;8.54;60.56;99750.09;5038046;28;20048;-48
2023/01/31 00:24:58;;;;;;;11.23;8.55;;;;;;;8.55;60.89;99745.69;5037957;28;20483;-48
2023/01/31 00:27:24;;;;;;;12.35;9.30;;;;;;;8.59;60.45;99745.22;5038021;28;20372;-48
2023/01/31 00:29:50;;;;;;;11.02;9.18;;;;;;;8.55;60.45;99736.06;5037965;28;20030;-48
2023/01/31 00:32:15;;;;;;;12.93;9.60;;;;;;;8.63;60.47;99732.59;5020154;28;20025;-49
2023/01/31 00:34:41;;;;;;;11.18;9.23;;;;;;;8.64;60.38;99738.69;5037922;28;20384;-48
2023/01/31 00:37:07;;;;;;;13.25;9.60;;;;;;;8.63;60.41;99737.03;5038136;28;20045;-48
2023/01/31 00:39:32;;;;;;;14.65;9.75;;;;;;;8.34;60.87;99733.84;5020253;28;20541;-48
2023/01/31 00:41:58;;;;;;;12.80;8.68;;;;;;;8.25;60.78;99733.97;5020142;28;20029;-49
2023/01/31 00:44:23;;;;;;;11.80;8.68;;;;;;;8.24;61.13;99730.53;5037791;28;20028;-48
2023/01/31 00:46:49;;;;;;;11.02;8.82;;;;;;;8.19;61.38;99728.41;5037842;28;20048;-48
2023/01/31 00:49:15;;;;;;;18.88;9.82;;;;;;;8.30;61.79;99726.47;5019997;28;20021;-48
2023/01/31 00:51:40;;;;;;;13.30;11.27;;;;;;;8.44;61.20;99723.25;5019903;28;20017;-48
2023/01/31 00:54:06;;;;;;;17.30;13.38;;;;;;;8.47;60.63;99714.25;5037607;28;20041;-49
2023/01/31 00:56:32;;;;;;;11.57;9.32;;;;;;;8.49;60.91;99722.78;5037692;28;20014;-48
2023/01/31 00:58:57;;;;;;;9.45;7.32;;;;;;;8.50;60.27;99713.97;5037726;28;20029;-48
2023/01/31 01:01:26;;;;;;;13.38;7.68;;;;;;;8.44;60.61;99725.88;5019890;28;20510;-48
2023/01/31 01:03:52;;;;;;;12.77;8.18;;;;;;;8.43;61.17;99732.09;5036091;28;20025;-48
2023/01/31 01:06:18;;;;;;;11.02;8.00;;;;;;;8.34;61.02;99722.56;5034510;28;20067;-48
2023/01/31 01:08:45;;;;;;;11.18;8.10;;;;;;;8.27;60.89;99732.84;4984269;28;20438;-48
2023/01/31 01:11:12;;;;;;;11.52;7.88;;;;;;;8.24;61.13;99734.97;5034545;28;20105;-48
2023/01/31 01:13:39;;;;;;;12.48;7.45;;;;;;;8.18;60.84;99741.63;5034521;28;20107;-48
2023/01/31 01:16:14;;;;;;;10.60;7.82;;;;;;;8.08;61.13;99738.34;5034382;28;20036;-48
2023/01/31 01:18:40;;;;;;;9.90;7.70;;;;;;;8.04;62.27;99737.81;5016663;28;20057;-48
2023/01/31 01:21:07;;;;;;;11.13;7.60;;;;;;;8.07;61.62;99734.06;5034326;28;20100;-48
2023/01/31 01:23:32;;;;;;;10.10;7.75;;;;;;;8.05;61.39;99746.47;5034496;28;20049;-48
2023/01/31 01:25:58;;;;;;;12.25;7.40;;;;;;;7.96;61.03;99743.84;5034145;28;20574;-48
2023/01/31 01:28:23;;;;;;;9.02;7.38;;;;;;;7.93;61.58;99759.03;5016334;28;20045;-48
2023/01/31 01:30:49;;;;;;;8.27;6.43;;;;;;;7.94;61.66;99755.44;5034113;28;20037;-48
2023/01/31 01:33:14;;;;;;;10.80;7.28;;;;;;;7.93;61.37;99766.88;5034095;28;20053;-48
2023/01/31 01:35:40;;;;;;;11.10;8.07;;;;;;;7.87;61.98;99784.00;5033969;28;20033;-48
2023/01/31 01:38:06;;;;;;;9.63;6.97;;;;;;;7.85;62.23;99761.59;5034003;28;20028;-47
2023/01/31 01:40:36;;;;;;;8.45;7.05;;;;;;;7.82;61.82;99772.38;5033882;28;20471;-48
2023/01/31 01:43:03;;;;;;;15.00;7.90;;;;;;;7.61;62.59;99768.34;5033932;28;20061;-48
2023/01/31 01:45:29;;;;;;;11.65;7.25;;;;;;;7.58;62.66;99764.22;5015987;28;20549;-48
2023/01/31 01:48:03;;;;;;;12.63;7.05;;;;;;;7.56;63.43;99778.41;5016244;28;20032;-48
2023/01/31 01:50:37;;;;;;;9.82;7.60;;;;;;;7.59;63.45;99778.13;5017053;28;20045;-48
2023/01/31 01:53:09;;;;;;;16.30;7.60;;;;;;;7.68;62.93;99781.59;5033497;28;20431;-47
2023/01/31 01:55:41;;;;;;;16.40;8.20;;;;;;;7.67;63.49;99778.16;5033694;28;20036;-48
2023/01/31 01:58:22;;;;;;;10.38;7.03;;;;;;;7.72;63.32;99786.34;5033595;28;20458;-48
2023/01/31 02:00:49;;;;;;;10.45;8.02;;;;;;;7.83;63.38;99789.66;5033611;28;20026;-48
2023/01/31 02:03:15;;;;;;;14.20;9.48;;;;;;;7.93;63.13;99786.00;5033553;28;20453;-48
2023/01/31 02:05:51;;;;;;;11.45;7.95;;;;;;;8.04;63.27;99784.88;5015799;28;20018;-48
2023/01/31 02:08:20;;;;;;;10.38;8.35;;;;;;;8.05;62.83;99783.94;5033452;28;20033;-48
2023/01/31 02:10:54;;;;;;;13.23;8.85;;;;;;;7.97;62.71;99776.84;5033403;28;20029;-48
2023/01/31 02:13:20;;;;;;;14.35;8.00;;;;;;;7.98;63.02;99783.72;5015577;28;20091;-48
2023/01/31 02:15:45;;;;;;;11.15;8.68;;;;;;;7.94;62.92;99776.34;5032762;28;20444;-48
2023/01/31 02:18:12;;;;;;;11.52;9.43;;;;;;;7.84;63.02;99775.66;5033239;28;20052;-48
2023/01/31 02:20:46;;;;;;;14.80;10.35;;;;;;;7.82;63.15;99781.00;5033173;28;20048;-48
2023/01/31 02:23:50;;;;;;;18.35;12.68;;;;;;;7.69;63.46;99778.84;5015436;28;20451;-48
2023/01/31 02:26:36;;;;;;;16.85;10.32;;;;;;;7.68;64.01;99777.19;5033353;28;20115;-48
2023/01/31 02:29:17;;;;;;;13.20;9.40;;;;;;;7.78;64.14;99766.63;5015317;28;20030;-48
2023/01/31 02:31:46;;;;;;;13.05;8.95;;;;;;;7.77;64.03;99786.72;5032938;28;20036;-48
2023/01/31 02:34:22;;;;;;;10.70;8.18;;;;;;;7.86;64.17;99786.75;5032919;28;20216;-48
2023/01/31 02:37:08;;;;;;;14.07;8.50;;;;;;;8.02;63.83;99778.19;5015177;28;20048;-48
2023/01/31 02:39:59;;;;;;;11.27;7.95;;;;;;;8.09;63.83;99784.41;5032909;28;20037;-48
2023/01/31 02:43:00;;;;;;;12.02;7.85;;;;;;;8.19;63.42;99785.94;5032779;28;20406;-48
2023/01/31 02:45:34;;;;;;;11.95;8.65;;;;;;;8.43;63.20;99781.81;5001111;28;20083;-48
2023/01/31 02:48:17;;;;;;;9.32;7.40;;;;;;;8.38;61.91;99781.41;5014966;28;20084;-48
2023/01/31 02:51:01;;;;;;;17.15;12.50;;;;;;;8.30;62.64;99797.91;5032685;28;20079;-48
2023/01/31 02:53:35;;;;;;;24.13;16.02;;;;;;;8.30;62.49;99799.69;5011320;28;20154;-48
2023/01/31 02:56:18;;;;;;;21.88;18.73;;;;;;;8.41;63.31;99794.22;5012795;28;20045;-48
2023/01/31 02:59:11;;;;;;;16.52;9.10;;;;;;;8.53;63.24;99792.94;5011515;28;20112;-48
2023/01/31 03:01:44;;;;;;;10.07;7.25;;;;;;;8.63;62.08;99797.22;5012727;28;20419;-48
2023/01/31 03:04:12;;;;;;;11.30;8.00;;;;;;;8.54;61.32;99794.56;5012870;28;20084;-48
2023/01/31 03:06:53;;;;;;;12.25;8.15;;;;;;;8.49;62.16;99794.25;5011299;28;20025;-48
2023/01/31 03:09:35;;;;;;;11.70;7.25;;;;;;;8.63;61.60;99794.59;5012586;28;20069;-49
2023/01/31 03:12:06;;;;;;;12.80;7.72;;;;;;;8.73;61.44;99806.56;5012863;28;20470;-48
2023/01/31 03:14:39;;;;;;;14.10;7.65;;;;;;;8.72;60.94;99801.50;5012853;28;20388;-48
2023/01/31 03:17:31;;;;;;;11.07;7.68;;;;;;;8.70;61.50;99800.84;5011147;28;20507;-48
2023/01/31 03:20:30;;;;;;;14.15;8.27;;;;;;;8.62;60.87;99811.28;5004184;28;20150;-48
2023/01/31 03:23:20;;;;;;;12.45;8.55;;;;;;;8.46;61.78;99822.53;4983456;28;20073;-48
2023/01/31 03:25:48;;;;;;;12.75;7.97;;;;;;;8.65;62.73;99821.41;5011012;28;20113;-48
2023/01/31 03:28:19;;;;;;;12.82;8.65;;;;;;;8.83;61.63;99823.91;5011479;28;20030;-48
2023/01/31 03:31:02;;;;;;;10.68;8.40;;;;;;;8.88;61.49;99825.06;5010979;28;20030;-48
2023/01/31 03:33:54;;;;;;;11.43;7.53;;;;;;;8.81;61.06;99831.91;5012284;28;20096;-48
2023/01/31 03:36:57;;;;;;;11.77;7.70;;;;;;;8.78;61.28;99837.50;5012442;28;20100;-48
2023/01/31 03:39:29;;;;;;;17.10;8.80;;;;;;;8.89;61.20;99834.56;4989135;28;20053;-48
2023/01/31 03:42:15;;;;;;;13.25;8.63;;;;;;;8.96;61.29;99842.59;5012127;28;20101;-48
2023/01/31 03:44:59;;;;;;;16.73;8.57;;;;;;;8.97;60.82;99834.59;5012137;28;20040;-48
2023/01/31 03:47:31;;;;;;;16.30;8.85;;;;;;;8.90;60.43;99838.00;5012084;28;20029;-48
2023/01/31 03:50:04;;;;;;;12.68;7.78;;;;;;;8.89;60.55;99841.59;5012148;28;20036;-48
2023/01/31 03:52:34;;;;;;;11.27;7.47;;;;;;;8.79;60.65;99846.97;5010777;28;20029;-48
2023/01/31 03:55:38;;;;;;;10.88;8.07;;;;;;;8.66;60.36;99851.84;5028894;28;20049;-48
2023/01/31 03:58:07;;;;;;;12.82;8.32;;;;;;;8.57;60.66;99851.84;5031758;28;20033;-48
2023/01/31 04:00:37;;;;;;;13.18;8.13;;;;;;;8.44;60.43;99856.69;5013913;28;20499;-48
2023/01/31 04:03:17;;;;;;;11.02;7.70;;;;;;;8.24;61.64;99863.09;5031704;28;20029;-48
2023/01/31 04:05:47;;;;;;;12.70;7.35;;;;;;;8.22;62.10;99867.66;5013831;28;20055;-48
2023/01/31 04:08:13;;;;;;;16.13;7.68;;;;;;;8.26;61.86;99861.97;5031865;28;20116;-48
2023/01/31 04:10:40;;;;;;;15.05;7.20;;;;;;;8.28;62.03;99873.09;5014167;28;20502;-48
2023/01/31 04:13:05;;;;;;;12.68;7.47;;;;;;;8.39;62.32;99869.38;5031600;28;20032;-48
2023/01/31 04:15:31;;;;;;;9.63;7.45;;;;;;;8.43;61.58;99867.28;5031598;28;20101;-48
2023/01/31 04:17:57;;;;;;;10.27;7.80;;;;;;;8.39;61.66;99861.50;4997728;28;20022;-48
2023/01/31 04:20:23;;;;;;;13.60;8.27;;;;;;;8.44;61.66;99869.75;5013667;28;20032;-48
2023/01/31 04:22:48;;;;;;;13.43;8.43;;;;;;;8.50;61.87;99866.50;5013724;28;20541;-48
2023/01/31 04:25:14;;;;;;;11.20;8.45;;;;;;;8.50;61.38;99863.91;5031344;28;20104;-48
2023/01/31 04:27:39;;;;;;;16.65;8.63;;;;;;;8.38;61.77;99867.75;5013642;28;20037;-48
2023/01/31 04:30:06;;;;;;;13.35;8.15;;;;;;;8.40;62.08;99868.41;5013661;28;20394;-48
2023/01/31 04:32:32;;;;;;;17.35;8.93;;;;;;;8.48;62.06;99865.84;5013635;28;20029;-48
2023/01/31 04:34:57;;;;;;;15.63;8.40;;;;;;;8.52;62.17;99874.22;5031547;28;20031;-48
2023/01/31 04:37:23;;;;;;;13.75;7.72;;;;;;;8.47;61.86;99877.31;5031331;28;20577;-48
2023/01/31 04:39:49;;;;;;;14.40;8.80;;;;;;;8.46;62.36;99874.84;5034646;28;20017;-47
2023/01/31 04:42:17;;;;;;;11.98;7.70;;;;;;;8.40;62.32;99876.25;5017208;28;20025;-48
2023/01/31 04:44:43;;;;;;;16.52;8.30;;;;;;;8.41;62.16;99880.56;5034942;28;20036;-48
2023/01/31 04:47:09;;;;;;;13.13;8.27;;;;;;;8.31;61.38;99880.63;5017187;28;20025;-48
2023/01/31 04:49:34;;;;;;;16.25;8.43;;;;;;;8.22;62.49;99883.34;5034909;28;20025;-48
2023/01/31 04:52:00;;;;;;;11.52;8.43;;;;;;;8.25;62.45;99876.03;5034887;28;20106;-48
2023/01/31 04:54:25;;;;;;;17.08;9.40;;;;;;;8.13;62.30;99879.84;5034637;28;20525;-48
2023/01/31 04:56:51;;;;;;;13.40;8.68;;;;;;;8.08;62.48;99882.94;5034780;28;20100;-48
2023/01/31 04:59:17;;;;;;;11.27;8.82;;;;;;;8.03;62.33;99876.53;5016937;28;20052;-48
2023/01/31 05:01:42;;;;;;;19.60;9.63;;;;;;;8.03;63.37;99881.75;5034680;28;20033;-48
2023/01/31 05:04:08;;;;;;;16.48;9.40;;;;;;;8.11;62.96;99882.66;5034885;28;20037;-48
2023/01/31 05:06:34;;;;;;;14.38;9.20;;;;;;;8.12;62.80;99883.47;5000495;28;20064;-48
2023/01/31 05:09:00;;;;;;;10.77;7.93;;;;;;;8.19;63.24;99885.31;5016694;28;20087;-48
2023/01/31 05:11:27;;;;;;;12.80;8.02;;;;;;;8.21;62.60;99882.53;5034539;28;20026;-48
2023/01/31 05:13:53;;;;;;;11.43;8.77;;;;;;;8.14;62.39;99882.31;5034457;28;20167;-48
2023/01/31 05:16:19;;;;;;;15.63;9.43;;;;;;;8.02;62.97;99885.38;5034364;28;20096;-48
2023/01/31 05:18:44;;;;;;;15.38;10.00;;;;;;;7.97;62.71;99885.84;5016619;28;20402;-48
2023/01/31 05:21:10;;;;;;;13.18;8.98;;;;;;;7.87;62.67;99883.31;5016727;28;20022;-48
2023/01/31 05:23:36;;;;;;;23.33;10.00;;;;;;;7.73;63.26;99884.69;5016496;28;20025;-48
2023/01/31 05:26:02;;;;;;;18.73;9.45;;;;;;;7.78;64.54;99890.25;5034177;28;20033;-48
2023/01/31 05:28:28;;;;;;;16.38;9.38;;;;;;;7.88;64.29;99877.09;5016431;28;20045;-48
2023/01/31 05:31:01;;;;;;;13.48;9.05;;;;;;;8.04;64.49;99886.84;5016254;28;20503;-48
2023/01/31 05:33:27;;;;;;;11.88;8.23;;;;;;;8.12;63.98;99889.50;5034154;28;20406;-48
2023/01/31 05:35:53;;;;;;;14.95;9.25;;;;;;;8.15;62.89;99897.06;5033968;28;20034;-48
2023/01/31 05:38:19;;;;;;;15.27;9.20;;;;;;;8.16;62.97;99903.09;5016238;28;20113;-48
2023/01/31 05:40:45;;;;;;;16.05;9.05;;;;;;;8.22;63.10;99901.66;5033955;28;20419;-48
2023/01/31 05:43:10;;;;;;;17.13;8.38;;;;;;;8.24;63.41;99897.09;5016113;28;20116;-48
2023/01/31 05:45:36;;;;;;;20.95;8.25;;;;;;;8.32;62.99;99895.34;5033838;28;20021;-48
2023/01/31 05:48:02;;;;;;;16.63;9.60;;;;;;;8.38;62.90;99904.38;5033832;28;20087;-48
2023/01/31 05:50:27;;;;;;;16.23;8.57;;;;;;;8.39;62.68;99905.97;4998989;28;20080;-48
2023/01/31 05:52:57;;;;;;;23.85;8.65;;;;;;;8.38;62.30;99904.38;5033768;28;20626;-48
2023/01/31 05:55:23;;;;;;;24.40;9.30;;;;;;;8.33;62.50;99910.06;5033687;28;20076;-48
2023/01/31 05:57:48;;;;;;;20.55;9.32;;;;;;;8.26;62.48;99910.84;5015901;28;20053;-48
2023/01/31 06:00:15;;;;;;;14.10;8.30;;;;;;;8.09;62.45;99913.34;5015752;28;20084;-48
2023/01/31 06:02:41;;;;;;;20.63;9.65;;;;;;;8.10;63.16;99911.56;5015803;28;20033;-48
2023/01/31 06:05:08;;;;;;;21.38;9.65;;;;;;;8.10;63.02;99916.78;5015623;28;20045;-48
2023/01/31 06:07:34;;;;;;;21.95;9.50;;;;;;;8.08;62.92;99914.31;5015748;28;20033;-48
2023/01/31 06:10:00;;;;;;;15.80;8.85;;;;;;;8.08;62.62;99919.53;5033477;28;20049;-48
2023/01/31 06:12:25;;;;;;;16.35;9.75;;;;;;;8.00;63.42;99917.69;5015627;28;20033;-48
2023/01/31 06:14:51;;;;;;;14.18;8.20;;;;;;;7.96;63.08;99924.19;5033359;28;20411;-48
2023/01/31 06:17:16;;;;;;;22.88;9.32;;;;;;;7.85;63.29;99923.63;5033297;28;20539;-48
2023/01/31 06:19:42;;;;;;;17.83;8.85;;;;;;;7.87;63.88;99926.91;5033250;28;20136;-48
2023/01/31 06:22:08;;;;;;;18.15;8.77;;;;;;;7.88;63.35;99923.34;5015402;28;20030;-48
2023/01/31 06:24:33;;;;;;;17.67;10.43;;;;;;;7.74;62.75;99935.16;5015297;28;20029;-48
2023/01/31 06:26:59;;;;;;;14.93;9.43;;;;;;;7.54;63.04;99940.53;5015255;28;20152;-48
2023/01/31 06:29:25;;;;;;;14.13;8.80;;;;;;;7.29;64.21;99941.28;5033055;28;20060;-48
2023/01/31 06:31:52;;;;;;;18.30;9.25;;;;;;;7.13;64.40;99945.34;5033184;28;20029;-48
2023/01/31 06:34:19;;;;;;;34.40;9.80;;;;;;;7.06;64.69;99951.31;5032946;28;20113;-48
2023/01/31 06:36:44;;;;;;;30.52;9.13;;;;;;;6.97;64.73;99951.22;5015070;28;20116;-48
2023/01/31 06:39:12;;;;;;;31.75;9.85;;;;;;;6.89;65.13;99956.34;5032871;28;20049;-48
2023/01/31 06:41:38;;;;;;;36.33;9.15;;;;;;;6.81;64.77;99956.25;5015297;28;20108;-48
2023/01/31 06:44:04;;;;;;;38.33;9.93;;;;;;;6.77;65.58;99952.28;5014853;28;20025;-47
2023/01/31 06:46:30;;;;;;;34.42;9.70;;;;;;;6.82;66.15;99963.09;5032723;28;20384;-48
2023/01/31 06:48:55;;;;;;;48.15;28.15;;;;;;;6.87;66.48;99966.09;5032700;28;20044;-48
2023/01/31 06:51:21;;;;;;;24.30;10.95;;;;;;;6.82;65.99;99957.88;5014985;28;20395;-48
2023/01/31 06:53:46;;;;;;;24.20;9.38;;;;;;;6.75;66.21;99968.06;5032375;28;20041;-48
2023/01/31 06:56:12;;;;;;;24.10;9.82;;;;;;;6.68;65.77;99967.00;5032471;28;20029;-48
2023/01/31 06:58:38;;;;;;;20.65;10.35;;;;;;;6.61;65.84;99965.94;5032532;28;20025;-48
2023/01/31 07:01:09;;;;;;;28.25;9.20;;;;;;;6.58;66.85;99972.25;5032576;28;20029;-48
2023/01/31 07:03:34;;;;;;;32.30;9.10;;;;;;;6.70;66.42;99974.69;5032478;28;20152;-48
2023/01/31 07:06:00;;;;;;;26.08;9.57;;;;;;;6.81;66.78;99977.13;5032250;28;20029;-48
2023/01/31 07:08:26;;;;;;;15.30;8.50;;;;;;;7.04;66.82;99974.13;5032542;28;20029;-48
2023/01/31 07:10:52;;;;;;;20.90;8.82;;;;;;;7.25;66.93;99992.97;5014694;28;20395;-48
2023/01/31 07:13:18;;;;;;;20.70;10.45;;;;;;;7.46;66.24;99973.59;5032485;28;20509;-48
2023/01/31 07:15:44;;;;;;;12.82;9.30;;;;;;;7.54;65.54;99976.28;5032095;28;20056;-48
2023/01/31 07:18:11;;;;;;;13.90;9.30;;;;;;;7.54;65.58;99979.69;5032230;28;20061;-48
2023/01/31 07:20:38;;;;;;;15.25;9.75;;;;;;;7.56;63.98;99982.19;5032044;28;20021;-48
2023/01/31 07:23:04;;;;;;;18.63;9.75;;;;;;;7.43;64.09;99985.16;5032091;28;20117;-48
2023/01/31 07:25:32;;;;;;;16.30;9.00;;;;;;;7.39;64.46;99986.44;5014197;28;20477;-48
2023/01/31 07:27:59;;;;;;;14.65;9.07;;;;;;;7.25;64.21;99989.53;5031978;28;20036;-48
2023/01/31 07:30:25;;;;;;;15.02;9.75;;;;;;;7.29;64.34;99988.28;5031978;28;20029;-48
2023/01/31 07:32:51;;;;;;;16.45;9.02;;;;;;;7.32;64.32;99994.00;5031893;28;20120;-48
2023/01/31 07:35:17;;;;;;;14.00;9.27;;;;;;;7.47;63.60;100001.38;5014151;28;20025;-48
2023/01/31 07:37:44;;;;;;;18.60;9.27;;;;;;;7.55;63.52;99999.66;5014136;28;20025;-48
2023/01/31 07:40:12;;;;;;;21.77;10.20;;;;;;;7.55;63.37;99997.03;5014116;28;20028;-48
2023/01/31 07:42:38;;;;;;;24.83;9.90;;;;;;;7.51;63.56;99998.31;5031870;28;20111;-48
2023/01/31 07:45:05;;;;;;;35.83;10.82;;;;;;;7.66;63.54;100003.81;5031677;28;20025;-48
2023/01/31 07:47:31;;;;;;;27.90;19.92;;;;;;;7.85;62.81;100002.88;5014302;28;20121;-49
2023/01/31 07:49:56;;;;;;;23.25;12.02;;;;;;;7.76;61.99;100004.56;5031792;28;20097;-49
2023/01/31 07:52:22;;;;;;;19.42;12.10;;;;;;;7.52;62.59;99997.31;5031802;28;20025;-48
2023/01/31 07:54:48;;;;;;;28.33;12.32;;;;;;;7.24;63.51;100000.94;5031517;28;20521;-48
2023/01/31 07:57:16;;;;;;;37.35;32.03;;;;;;;7.23;63.72;100013.19;5031689;28;20026;-48
2023/01/31 07:59:43;;;;;;;23.40;13.73;;;;;;;7.24;64.15;100019.22;5031784;28;20021;-48
2023/01/31 08:04:58;;;;;;;21.08;11.25;;;;;;;7.32;65.22;100032.38;5031787;28;20032;-48
2023/01/31 08:07:25;;;;;;;23.52;11.68;;;;;;;8.08;64.39;100024.13;5013838;28;20459;-49
2023/01/31 08:09:50;;;;;;;19.80;10.68;;;;;;;8.94;62.39;100022.59;5013895;28;20037;-49
2023/01/31 08:12:16;;;;;;;17.67;10.55;;;;;;;9.10;60.70;100021.84;5013760;28;20080;-48
2023/01/31 08:14:42;;;;;;;16.48;9.68;;;;;;;9.02;60.33;100042.78;5034901;28;20559;-48
2023/01/31 08:17:08;;;;;;;17.83;10.05;;;;;;;8.94;59.81;100038.31;5035523;28;20511;-48
2023/01/31 08:19:34;;;;;;;16.08;9.95;;;;;;;8.90;59.57;100037.78;5035558;28;20083;-48
2023/01/31 08:22:01;;;;;;;16.05;10.38;;;;;;;8.89;60.64;100038.75;5035414;28;20470;-48
2023/01/31 08:24:27;;;;;;;14.32;9.55;;;;;;;9.21;59.92;100037.25;5035357;28;20234;-49
2023/01/31 08:26:53;;;;;;;22.55;11.02;;;;;;;10.36;58.69;100038.31;5035377;28;20033;-49
2023/01/31 08:29:19;;;;;;;21.27;10.50;;;;;;;11.37;55.92;100047.38;5035285;28;20029;-48
2023/01/31 08:31:44;;;;;;;27.60;9.98;;;;;;;11.46;54.24;100047.34;5035255;28;20113;-48
2023/01/31 08:34:10;;;;;;;18.48;10.43;;;;;;;11.09;53.50;100054.06;5035247;28;20092;-49
2023/01/31 08:36:36;;;;;;;20.75;10.23;;;;;;;10.85;54.37;100050.53;5035397;28;20109;-48
2023/01/31 08:39:02;;;;;;;18.05;8.63;;;;;;;10.68;53.81;100054.97;5035176;28;20484;-48
2023/01/31 08:41:31;;;;;;;22.80;10.35;;;;;;;10.46;53.81;100050.41;5017333;28;20021;-49
2023/01/31 08:43:58;;;;;;;15.20;10.15;;;;;;;10.15;54.12;100065.00;5035074;28;20440;-49
2023/01/31 08:46:29;;;;;;;22.42;10.00;;;;;;;9.79;55.05;100057.41;5035177;28;20033;-49
2023/01/31 08:48:54;;;;;;;15.10;9.60;;;;;;;9.61;55.10;100064.59;5018012;28;20036;-49
2023/01/31 08:51:21;;;;;;;24.58;10.40;;;;;;;9.36;55.79;100079.41;5034926;28;20021;-48
2023/01/31 08:53:48;;;;;;;23.20;10.90;;;;;;;9.22;55.97;100075.59;5016856;28;20110;-49
2023/01/31 08:56:14;;;;;;;15.88;10.20;;;;;;;9.13;56.37;100074.72;5034842;28;20033;-49
2023/01/31 08:58:42;;;;;;;20.17;9.95;;;;;;;9.08;56.49;100078.81;5034823;28;20096;-48
2023/01/31 09:01:11;;;;;;;13.63;8.77;;;;;;;9.04;56.80;100078.28;5016967;28;20018;-49
2023/01/31 09:03:37;;;;;;;14.38;8.95;;;;;;;9.51;56.38;100075.19;5034678;28;20036;-48
2023/01/31 09:06:11;;;;;;;19.52;9.82;;;;;;;9.92;55.82;100077.09;5034607;28;20434;-49
2023/01/31 09:08:37;;;;;;;17.90;9.77;;;;;;;10.37;54.59;100075.84;5034678;28;20111;-49
2023/01/31 09:11:03;;;;;;;20.92;8.15;;;;;;;10.58;53.96;100078.81;5034475;28;20061;-48
2023/01/31 09:13:29;;;;;;;13.98;8.82;;;;;;;10.58;53.31;100084.06;5034498;28;20403;-49
2023/01/31 09:15:59;;;;;;;20.48;9.27;;;;;;;10.50;53.75;100081.44;5034656;28;20068;-48
2023/01/31 09:18:24;;;;;;;21.15;9.82;;;;;;;10.78;53.86;100087.16;5034369;28;20388;-48
2023/01/31 09:20:50;;;;;;;16.70;9.20;;;;;;;11.14;52.62;100089.34;5016494;28;20029;-48
2023/01/31 09:23:18;;;;;;;16.77;10.23;;;;;;;11.30;52.06;100092.91;5034297;28;20029;-49
2023/01/31 09:25:44;;;;;;;25.15;10.68;;;;;;;11.52;52.34;100091.34;5032892;28;20029;-49
2023/01/31 09:28:09;;;;;;;17.95;11.02;;;;;;;12.02;50.67;100091.91;5016433;28;20044;-48
2023/01/31 09:30:36;;;;;;;18.48;9.98;;;;;;;12.36;50.24;100096.75;5034215;28;20023;-48
2023/01/31 09:33:01;;;;;;;15.82;9.50;;;;;;;12.72;49.62;100098.75;5034317;28;20561;-49
2023/01/31 09:35:27;;;;;;;19.67;9.60;;;;;;;13.35;48.23;100093.97;5034071;28;20108;-49
2023/01/31 09:37:53;;;;;;;25.27;10.07;;;;;;;14.76;46.54;100086.44;5033992;28;20561;-49
2023/01/31 09:40:23;;;;;;;11.80;8.27;;;;;;;15.71;44.12;100084.88;5034011;28;20014;-49
2023/01/31 09:42:51;;;;;;;13.63;9.23;;;;;;;16.42;42.21;100080.94;5016121;28;20403;-49
2023/01/31 09:45:30;;;;;;;14.63;8.93;;;;;;;15.89;42.37;100075.56;5016157;28;20017;-46
2023/01/31 09:48:00;;;;;;;15.02;8.15;;;;;;;16.05;42.38;100083.13;5016112;28;20392;-46
2023/01/31 09:50:28;;;;;;;17.75;8.60;;;;;;;17.36;41.09;100085.06;5015968;28;20022;-46
2023/01/31 09:52:54;;;;;;;17.42;8.73;;;;;;;18.72;38.79;100071.50;5033743;28;20025;-46
2023/01/31 09:55:41;;;;;;;26.27;9.77;;;;;;;20.13;36.78;100068.78;5015756;28;20422;-47
2023/01/31 09:58:18;;;;;;;17.35;8.68;;;;;;;20.60;34.07;100074.16;5015882;28;20468;-47
2023/01/31 10:00:53;;;;;;;23.00;10.00;;;;;;;20.34;34.20;100080.72;5033881;28;20033;-47
2023/01/31 10:03:43;;;;;;;14.75;8.93;;;;;;;19.59;34.69;100068.69;5034076;28;20029;-46
2023/01/31 10:06:21;;;;;;;16.88;7.68;;;;;;;19.68;34.88;100078.00;5033457;28;20406;-46
2023/01/31 10:09:01;;;;;;;18.23;8.52;;;;;;;20.75;32.96;100066.53;5015659;28;20026;-46
2023/01/31 10:11:40;;;;;;;14.50;8.75;;;;;;;21.45;31.69;100069.28;5033475;28;20461;-47
2023/01/31 10:14:20;;;;;;;20.40;8.13;;;;;;;21.91;31.53;100072.81;5033369;28;20424;-47
2023/01/31 10:16:56;;;;;;;14.80;7.47;;;;;;;21.86;30.62;100070.88;5033380;28;20036;-47
2023/01/31 10:19:29;;;;;;;13.35;7.43;;;;;;;20.94;30.89;100077.84;5015640;28;20116;-47
2023/01/31 10:22:11;;;;;;;19.55;8.45;;;;;;;20.29;31.76;100085.97;5033244;28;20033;-47
2023/01/31 10:24:53;;;;;;;18.90;8.38;;;;;;;20.04;32.16;100081.63;5033124;28;20017;-46
2023/01/31 10:27:44;;;;;;;15.70;7.90;;;;;;;20.90;30.52;100075.91;5033140;28;20026;-47
2023/01/31 10:30:40;;;;;;;12.43;6.82;;;;;;;21.50;30.16;100069.41;5015348;28;20049;-46
2023/01/31 10:33:26;;;;;;;11.55;6.68;;;;;;;22.13;29.48;100060.38;5015292;28;20029;-46
2023/01/31 10:35:54;;;;;;;17.23;7.40;;;;;;;22.36;27.43;100050.59;5015177;28;20043;-47
2023/01/31 10:38:27;;;;;;;13.32;6.82;;;;;;;22.70;28.24;100053.22;5015171;28;20029;-47
2023/01/31 10:41:17;;;;;;;8.68;6.47;;;;;;;23.06;27.46;100056.38;5032841;28;20106;-47
2023/01/31 10:43:46;;;;;;;9.77;7.53;;;;;;;23.68;26.63;100053.34;5032234;28;20076;-48
2023/01/31 10:46:13;;;;;;;21.92;8.48;;;;;;;23.35;26.48;100040.13;5032647;28;20029;-47
2023/01/31 10:48:40;;;;;;;27.02;9.55;;;;;;;23.37;26.50;100038.00;5032920;28;20441;-47
2023/01/31 10:51:12;;;;;;;23.63;7.78;;;;;;;22.26;27.08;100026.38;5032631;28;20021;-47
2023/01/31 10:54:12;;;;;;;16.95;7.57;;;;;;;21.02;27.79;100027.84;5032347;28;20037;-46
2023/01/31 10:56:43;;;;;;;14.32;6.45;;;;;;;19.53;29.07;100022.47;5032593;28;20045;-46
2023/01/31 10:59:23;;;;;;;9.13;5.90;;;;;;;18.94;30.03;100027.50;5032501;28;20047;-46
2023/01/31 11:01:49;;;;;;;30.58;6.80;;;;;;;19.05;30.52;100020.63;5032519;28;20112;-47
2023/01/31 11:04:24;;;;;;;17.15;7.13;;;;;;;18.73;30.61;100011.97;5032292;28;20522;-46
2023/01/31 11:06:50;;;;;;;13.53;6.57;;;;;;;18.04;31.86;100009.31;5014671;28;20032;-47
2023/01/31 11:09:16;;;;;;;12.00;4.03;;;;;;;17.76;30.52;100002.53;5032376;28;20025;-46
2023/01/31 11:11:57;;;;;;;11.95;4.47;;;;;;;17.91;31.04;100012.09;5032253;28;20483;-46
2023/01/31 11:14:23;;;;;;;8.43;4.88;;;;;;;18.76;30.35;100009.69;5014503;28;20057;-46
2023/01/31 11:17:08;;;;;;;8.40;4.95;;;;;;;19.56;28.44;100002.59;5014481;28;20057;-46
2023/01/31 11:19:33;;;;;;;7.50;5.38;;;;;;;19.84;27.66;99998.50;5032271;28;20026;-46
2023/01/31 11:22:00;;;;;;;7.13;3.90;;;;;;;19.86;27.53;99997.25;5032129;28;20407;-47
2023/01/31 11:24:29;;;;;;;7.60;5.00;;;;;;;19.71;27.64;99992.34;5014472;28;20028;-47
2023/01/31 11:27:10;;;;;;;10.07;3.50;;;;;;;19.55;27.44;99984.97;5032060;28;20028;-46
2023/01/31 11:29:44;;;;;;;15.77;4.25;;;;;;;19.73;27.36;99979.59;5032347;28;20395;-46
2023/01/31 11:32:22;;;;;;;7.72;5.35;;;;;;;20.08;27.36;99976.19;5014391;28;20041;-46
2023/01/31 11:35:03;;;;;;;9.25;4.63;;;;;;;19.84;27.27;99961.19;5014282;28;20407;-47
2023/01/31 11:37:30;;;;;;;11.23;5.05;;;;;;;19.55;28.21;99956.47;5031942;28;20029;-46
2023/01/31 11:40:14;;;;;;;7.70;4.95;;;;;;;20.04;28.41;99958.19;5031930;28;20048;-47
2023/01/31 11:42:54;;;;;;;9.98;4.82;;;;;;;20.97;26.98;99945.00;5014117;28;20021;-47
2023/01/31 11:45:22;;;;;;;12.00;5.00;;;;;;;21.23;26.32;99952.44;5031764;28;20391;-47